sensor_id;sensor_type;location;lat;lon;timestamp;temperature;humidity
76838;DHT22;65797;47.352;8.164;2023-08-08T00:01:21;11.90;99.90
76838;DHT22;65797;47.352;8.164;2023-08-08T00:03:47;11.90;99.90
76838;DHT22;65797;47.352;8.164;2023-08-08T00:06:12;11.90;99.90
76838;DHT22;65797;47.352;8.164;2023-08-08T00:08:38;11.80;53.90
76838;DHT22;65797;47.352;8.164;2023-08-08T00:11:04;11.80;73.50
76838;DHT22;65797;47.352;8.164;2023-08-08T00:13:29;11.70;99.90
76838;DHT22;65797;47.352;8.164;2023-08-08T00:15:55;11.70;99.50
76838;DHT22;65797;47.352;8.164;2023-08-08T00:18:21;11.70;99.90
76838;DHT22;65797;47.352;8.164;2023-08-08T00:20:46;11.70;99.90
76838;DHT22;65797;47.352;8.164;2023-08-08T00:23:12;11.70;99.90
76838;DHT22;65797;47.352;8.164;2023-08-08T00:25:38;11.70;99.90
76838;DHT22;65797;47.352;8.164;2023-08-08T00:28:04;11.70;99.90
76838;DHT22;65797;47.352;8.164;2023-08-08T00:30:29;11.60;99.90
76838;DHT22;65797;47.352;8.164;2023-08-08T00:32:55;11.60;99.90
76838;DHT22;65797;47.352;8.164;2023-08-08T00:35:21;11.60;99.90
76838;DHT22;65797;47.352;8.164;2023-08-08T00:37:48;11.60;99.90
76838;DHT22;65797;47.352;8.164;2023-08-08T00:40:14;11.60;99.90
76838;DHT22;65797;47.352;8.164;2023-08-08T00:42:40;11.60;99.90
76838;DHT22;65797;47.352;8.164;2023-08-08T00:45:06;11.60;99.90
76838;DHT22;65797;47.352;8.164;2023-08-08T00:47:32;11.50;99.90
76838;DHT22;65797;47.352;8.164;2023-08-08T00:49:58;11.60;1.00
76838;DHT22;65797;47.352;8.164;2023-08-08T00:52:25;11.60;1.00
76838;DHT22;65797;47.352;8.164;2023-08-08T00:54:51;11.50;99.90
76838;DHT22;65797;47.352;8.164;2023-08-08T00:57:18;11.50;99.90
76838;DHT22;65797;47.352;8.164;2023-08-08T00:59:44;11.60;1.00
76838;DHT22;65797;47.352;8.164;2023-08-08T01:02:09;11.60;1.00
76838;DHT22;65797;47.352;8.164;2023-08-08T01:04:35;11.60;99.90
76838;DHT22;65797;47.352;8.164;2023-08-08T01:07:15;11.60;1.00
76838;DHT22;65797;47.352;8.164;2023-08-08T01:09:59;11.50;99.90
76838;DHT22;65797;47.352;8.164;2023-08-08T01:12:29;11.40;99.90
76838;DHT22;65797;47.352;8.164;2023-08-08T01:14:56;11.40;99.90
76838;DHT22;65797;47.352;8.164;2023-08-08T01:17:22;11.40;99.90
76838;DHT22;65797;47.352;8.164;2023-08-08T01:19:49;11.40;1.00
76838;DHT22;65797;47.352;8.164;2023-08-08T01:22:23;11.40;1.00
76838;DHT22;65797;47.352;8.164;2023-08-08T01:24:51;11.40;1.00
76838;DHT22;65797;47.352;8.164;2023-08-08T01:27:18;11.40;1.00
76838;DHT22;65797;47.352;8.164;2023-08-08T01:29:44;11.40;1.00
76838;DHT22;65797;47.352;8.164;2023-08-08T01:32:10;11.40;1.00
76838;DHT22;65797;47.352;8.164;2023-08-08T01:34:36;11.40;99.90
76838;DHT22;65797;47.352;8.164;2023-08-08T01:37:09;11.40;1.00
76838;DHT22;65797;47.352;8.164;2023-08-08T01:39:37;11.40;1.00
76838;DHT22;65797;47.352;8.164;2023-08-08T01:42:04;11.40;1.00
76838;DHT22;65797;47.352;8.164;2023-08-08T01:44:31;11.30;1.00
76838;DHT22;65797;47.352;8.164;2023-08-08T01:46:58;11.30;1.00
76838;DHT22;65797;47.352;8.164;2023-08-08T01:49:24;11.30;1.00
76838;DHT22;65797;47.352;8.164;2023-08-08T01:51:50;11.30;1.00
76838;DHT22;65797;47.352;8.164;2023-08-08T01:54:16;11.30;1.00
76838;DHT22;65797;47.352;8.164;2023-08-08T01:56:42;11.30;1.00
76838;DHT22;65797;47.352;8.164;2023-08-08T01:59:07;11.40;1.00
76838;DHT22;65797;47.352;8.164;2023-08-08T02:01:33;11.40;1.00
76838;DHT22;65797;47.352;8.164;2023-08-08T02:03:59;11.40;1.00
76838;DHT22;65797;47.352;8.164;2023-08-08T02:06:24;11.40;1.00
76838;DHT22;65797;47.352;8.164;2023-08-08T02:08:50;11.40;1.00
76838;DHT22;65797;47.352;8.164;2023-08-08T02:11:16;11.20;1.00
76838;DHT22;65797;47.352;8.164;2023-08-08T02:13:41;11.20;1.00
76838;DHT22;65797;47.352;8.164;2023-08-08T02:16:07;11.20;1.00
76838;DHT22;65797;47.352;8.164;2023-08-08T02:18:33;11.20;99.90
76838;DHT22;65797;47.352;8.164;2023-08-08T02:20:58;11.20;99.90
76838;DHT22;65797;47.352;8.164;2023-08-08T02:23:24;11.20;19.80
76838;DHT22;65797;47.352;8.164;2023-08-08T02:25:51;11.20;1.00
76838;DHT22;65797;47.352;8.164;2023-08-08T02:28:17;11.20;1.00
76838;DHT22;65797;47.352;8.164;2023-08-08T02:30:43;11.20;98.10
76838;DHT22;65797;47.352;8.164;2023-08-08T02:33:09;11.20;75.90
76838;DHT22;65797;47.352;8.164;2023-08-08T02:35:36;11.20;74.80
76838;DHT22;65797;47.352;8.164;2023-08-08T02:38:03;11.20;1.00
76838;DHT22;65797;47.352;8.164;2023-08-08T02:40:29;11.20;32.20
76838;DHT22;65797;47.352;8.164;2023-08-08T02:42:54;11.20;30.20
76838;DHT22;65797;47.352;8.164;2023-08-08T02:45:20;11.20;99.90
76838;DHT22;65797;47.352;8.164;2023-08-08T02:47:45;11.20;99.90
76838;DHT22;65797;47.352;8.164;2023-08-08T02:50:11;11.20;99.90
76838;DHT22;65797;47.352;8.164;2023-08-08T02:52:37;11.20;99.90
76838;DHT22;65797;47.352;8.164;2023-08-08T02:55:03;11.20;99.90
76838;DHT22;65797;47.352;8.164;2023-08-08T02:57:29;11.20;99.90
76838;DHT22;65797;47.352;8.164;2023-08-08T02:59:54;11.20;77.80
76838;DHT22;65797;47.352;8.164;2023-08-08T03:02:20;11.20;52.70
76838;DHT22;65797;47.352;8.164;2023-08-08T03:04:45;11.20;49.30
76838;DHT22;65797;47.352;8.164;2023-08-08T03:07:11;11.20;1.00
76838;DHT22;65797;47.352;8.164;2023-08-08T03:09:37;11.20;1.00
76838;DHT22;65797;47.352;8.164;2023-08-08T03:12:03;11.20;1.00
76838;DHT22;65797;47.352;8.164;2023-08-08T03:14:29;11.20;1.00
76838;DHT22;65797;47.352;8.164;2023-08-08T03:16:55;11.20;1.00
76838;DHT22;65797;47.352;8.164;2023-08-08T03:19:21;11.20;1.00
76838;DHT22;65797;47.352;8.164;2023-08-08T03:21:47;11.20;1.00
76838;DHT22;65797;47.352;8.164;2023-08-08T03:24:12;11.20;1.00
76838;DHT22;65797;47.352;8.164;2023-08-08T03:26:38;11.20;1.00
76838;DHT22;65797;47.352;8.164;2023-08-08T03:29:03;11.10;1.00
76838;DHT22;65797;47.352;8.164;2023-08-08T03:31:29;11.10;1.00
76838;DHT22;65797;47.352;8.164;2023-08-08T03:33:55;11.00;1.00
76838;DHT22;65797;47.352;8.164;2023-08-08T03:36:20;11.00;1.00
76838;DHT22;65797;47.352;8.164;2023-08-08T03:38:46;11.00;12.50
76838;DHT22;65797;47.352;8.164;2023-08-08T03:41:13;11.00;1.00
76838;DHT22;65797;47.352;8.164;2023-08-08T03:43:39;11.00;1.00
76838;DHT22;65797;47.352;8.164;2023-08-08T03:46:05;11.00;1.00
76838;DHT22;65797;47.352;8.164;2023-08-08T03:48:31;11.00;1.00
76838;DHT22;65797;47.352;8.164;2023-08-08T03:50:57;11.00;1.00
76838;DHT22;65797;47.352;8.164;2023-08-08T03:53:22;10.90;1.00
76838;DHT22;65797;47.352;8.164;2023-08-08T03:55:48;10.90;1.00
76838;DHT22;65797;47.352;8.164;2023-08-08T03:58:14;10.80;1.00
76838;DHT22;65797;47.352;8.164;2023-08-08T04:00:39;10.80;1.00
76838;DHT22;65797;47.352;8.164;2023-08-08T04:03:13;10.80;1.00
76838;DHT22;65797;47.352;8.164;2023-08-08T04:05:39;10.70;1.00
76838;DHT22;65797;47.352;8.164;2023-08-08T04:08:05;10.70;1.00
76838;DHT22;65797;47.352;8.164;2023-08-08T04:10:31;10.70;1.00
76838;DHT22;65797;47.352;8.164;2023-08-08T04:12:56;10.70;1.00
76838;DHT22;65797;47.352;8.164;2023-08-08T04:15:22;10.60;1.00
76838;DHT22;65797;47.352;8.164;2023-08-08T04:17:48;10.70;6.30
76838;DHT22;65797;47.352;8.164;2023-08-08T04:20:13;10.60;1.00
76838;DHT22;65797;47.352;8.164;2023-08-08T04:22:40;10.60;1.00
76838;DHT22;65797;47.352;8.164;2023-08-08T04:25:06;10.60;1.00
76838;DHT22;65797;47.352;8.164;2023-08-08T04:27:32;10.60;1.00
76838;DHT22;65797;47.352;8.164;2023-08-08T04:29:57;10.60;1.00
76838;DHT22;65797;47.352;8.164;2023-08-08T04:32:23;10.70;1.00
76838;DHT22;65797;47.352;8.164;2023-08-08T04:55:32;10.90;38.80
76838;DHT22;65797;47.352;8.164;2023-08-08T04:57:57;10.90;99.90
76838;DHT22;65797;47.352;8.164;2023-08-08T05:05:34;11.20;99.90
76838;DHT22;65797;47.352;8.164;2023-08-08T05:07:59;11.40;99.90
76838;DHT22;65797;47.352;8.164;2023-08-08T05:10:25;11.50;90.70
76838;DHT22;65797;47.352;8.164;2023-08-08T05:12:51;11.70;10.40
76838;DHT22;65797;47.352;8.164;2023-08-08T05:15:17;11.90;1.00
76838;DHT22;65797;47.352;8.164;2023-08-08T05:17:42;12.10;1.00
76838;DHT22;65797;47.352;8.164;2023-08-08T05:20:09;12.20;1.00
76838;DHT22;65797;47.352;8.164;2023-08-08T05:22:35;12.40;99.90
76838;DHT22;65797;47.352;8.164;2023-08-08T05:25:01;12.30;99.90
76838;DHT22;65797;47.352;8.164;2023-08-08T05:27:26;12.30;99.90
76838;DHT22;65797;47.352;8.164;2023-08-08T05:29:52;12.40;99.90
76838;DHT22;65797;47.352;8.164;2023-08-08T05:32:18;12.30;99.90
76838;DHT22;65797;47.352;8.164;2023-08-08T05:34:43;12.40;99.90
76838;DHT22;65797;47.352;8.164;2023-08-08T05:37:09;12.40;99.90
76838;DHT22;65797;47.352;8.164;2023-08-08T05:39:35;12.50;99.90
76838;DHT22;65797;47.352;8.164;2023-08-08T05:42:00;12.50;99.90
76838;DHT22;65797;47.352;8.164;2023-08-08T05:47:01;12.60;99.90
76838;DHT22;65797;47.352;8.164;2023-08-08T05:49:27;12.60;99.90
76838;DHT22;65797;47.352;8.164;2023-08-08T05:51:53;12.60;99.90
76838;DHT22;65797;47.352;8.164;2023-08-08T05:54:18;12.70;99.90
76838;DHT22;65797;47.352;8.164;2023-08-08T05:56:44;12.70;99.90
76838;DHT22;65797;47.352;8.164;2023-08-08T05:59:10;12.70;90.50
76838;DHT22;65797;47.352;8.164;2023-08-08T06:01:35;12.80;11.80
76838;DHT22;65797;47.352;8.164;2023-08-08T06:04:01;12.90;99.90
76838;DHT22;65797;47.352;8.164;2023-08-08T06:06:27;13.00;90.20
76838;DHT22;65797;47.352;8.164;2023-08-08T06:08:53;13.00;99.90
76838;DHT22;65797;47.352;8.164;2023-08-08T06:11:18;13.10;11.60
76838;DHT22;65797;47.352;8.164;2023-08-08T06:13:44;13.20;1.00
76838;DHT22;65797;47.352;8.164;2023-08-08T06:16:10;13.10;1.00
76838;DHT22;65797;47.352;8.164;2023-08-08T06:18:37;13.10;1.00
76838;DHT22;65797;47.352;8.164;2023-08-08T06:21:02;13.20;1.00
76838;DHT22;65797;47.352;8.164;2023-08-08T06:23:28;13.20;1.00
76838;DHT22;65797;47.352;8.164;2023-08-08T06:25:54;13.30;1.00
76838;DHT22;65797;47.352;8.164;2023-08-08T06:28:20;13.40;1.00
76838;DHT22;65797;47.352;8.164;2023-08-08T06:30:45;13.50;8.60
76838;DHT22;65797;47.352;8.164;2023-08-08T06:33:11;13.60;1.00
76838;DHT22;65797;47.352;8.164;2023-08-08T06:35:37;13.70;1.00
76838;DHT22;65797;47.352;8.164;2023-08-08T06:38:03;13.80;1.00
76838;DHT22;65797;47.352;8.164;2023-08-08T07:31:04;15.80;99.90
76838;DHT22;65797;47.352;8.164;2023-08-08T07:33:30;15.90;99.90
76838;DHT22;65797;47.352;8.164;2023-08-08T07:35:57;16.00;99.90
76838;DHT22;65797;47.352;8.164;2023-08-08T07:48:44;16.10;99.90
76838;DHT22;65797;47.352;8.164;2023-08-08T07:53:45;16.40;99.90
76838;DHT22;65797;47.352;8.164;2023-08-08T07:58:47;16.30;99.90
76838;DHT22;65797;47.352;8.164;2023-08-08T08:01:15;16.60;99.90
76838;DHT22;65797;47.352;8.164;2023-08-08T12:51:29;23.40;56.00
76838;DHT22;65797;47.352;8.164;2023-08-08T12:53:54;23.60;57.20
76838;DHT22;65797;47.352;8.164;2023-08-08T12:58:56;23.60;56.60
76838;DHT22;65797;47.352;8.164;2023-08-08T13:01:21;23.50;54.20
76838;DHT22;65797;47.352;8.164;2023-08-08T13:03:47;23.70;57.80
76838;DHT22;65797;47.352;8.164;2023-08-08T13:09:03;24.50;63.60
76838;DHT22;65797;47.352;8.164;2023-08-08T13:11:29;24.60;67.60
76838;DHT22;65797;47.352;8.164;2023-08-08T13:13:55;24.20;61.50
76838;DHT22;65797;47.352;8.164;2023-08-08T13:16:21;23.90;71.80
76838;DHT22;65797;47.352;8.164;2023-08-08T13:26:32;23.70;56.80
76838;DHT22;65797;47.352;8.164;2023-08-08T13:28:58;24.00;58.40
76838;DHT22;65797;47.352;8.164;2023-08-08T13:31:24;23.90;57.50
76838;DHT22;65797;47.352;8.164;2023-08-08T13:33:49;24.00;58.40
76838;DHT22;65797;47.352;8.164;2023-08-08T13:36:15;24.60;66.80
76838;DHT22;65797;47.352;8.164;2023-08-08T13:38:41;24.60;65.70
76838;DHT22;65797;47.352;8.164;2023-08-08T13:41:07;24.40;59.60
76838;DHT22;65797;47.352;8.164;2023-08-08T13:43:32;24.90;61.30
76838;DHT22;65797;47.352;8.164;2023-08-08T13:45:59;24.80;59.10
76838;DHT22;65797;47.352;8.164;2023-08-08T13:48:25;24.80;60.70
76838;DHT22;65797;47.352;8.164;2023-08-08T13:50:52;24.60;57.70
76838;DHT22;65797;47.352;8.164;2023-08-08T13:53:18;25.00;65.50
76838;DHT22;65797;47.352;8.164;2023-08-08T13:55:44;25.30;68.70
76838;DHT22;65797;47.352;8.164;2023-08-08T13:58:10;25.20;68.40
76838;DHT22;65797;47.352;8.164;2023-08-08T14:00:36;25.00;67.80
76838;DHT22;65797;47.352;8.164;2023-08-08T14:03:02;24.90;64.70
76838;DHT22;65797;47.352;8.164;2023-08-08T14:05:28;25.00;63.30
76838;DHT22;65797;47.352;8.164;2023-08-08T14:07:54;24.70;61.70
76838;DHT22;65797;47.352;8.164;2023-08-08T14:10:20;25.50;70.70
76838;DHT22;65797;47.352;8.164;2023-08-08T14:12:46;25.60;71.70
76838;DHT22;65797;47.352;8.164;2023-08-08T14:15:11;25.00;66.30
76838;DHT22;65797;47.352;8.164;2023-08-08T14:17:37;24.70;63.10
76838;DHT22;65797;47.352;8.164;2023-08-08T14:20:03;24.90;65.30
76838;DHT22;65797;47.352;8.164;2023-08-08T14:22:30;25.30;67.80
76838;DHT22;65797;47.352;8.164;2023-08-08T14:24:56;25.40;69.20
76838;DHT22;65797;47.352;8.164;2023-08-08T14:27:22;25.10;66.40
76838;DHT22;65797;47.352;8.164;2023-08-08T14:29:48;25.20;66.20
76838;DHT22;65797;47.352;8.164;2023-08-08T14:32:13;25.20;66.10
76838;DHT22;65797;47.352;8.164;2023-08-08T14:34:39;25.00;63.70
76838;DHT22;65797;47.352;8.164;2023-08-08T14:37:06;25.30;66.00
76838;DHT22;65797;47.352;8.164;2023-08-08T14:39:32;25.00;64.40
76838;DHT22;65797;47.352;8.164;2023-08-08T14:41:58;24.60;59.40
76838;DHT22;65797;47.352;8.164;2023-08-08T14:44:24;24.10;55.50
76838;DHT22;65797;47.352;8.164;2023-08-08T14:46:50;24.20;56.30
76838;DHT22;65797;47.352;8.164;2023-08-08T14:49:16;24.10;54.90
76838;DHT22;65797;47.352;8.164;2023-08-08T14:51:42;24.20;55.20
76838;DHT22;65797;47.352;8.164;2023-08-08T14:54:08;24.10;53.60
76838;DHT22;65797;47.352;8.164;2023-08-08T14:56:34;24.00;53.10
76838;DHT22;65797;47.352;8.164;2023-08-08T14:58:59;23.50;49.20
76838;DHT22;65797;47.352;8.164;2023-08-08T15:01:25;24.10;53.60
76838;DHT22;65797;47.352;8.164;2023-08-08T15:03:51;24.40;55.70
76838;DHT22;65797;47.352;8.164;2023-08-08T15:06:16;24.40;57.80
76838;DHT22;65797;47.352;8.164;2023-08-08T15:08:42;23.80;51.90
76838;DHT22;65797;47.352;8.164;2023-08-08T15:11:08;24.40;54.90
76838;DHT22;65797;47.352;8.164;2023-08-08T15:13:34;24.60;57.10
76838;DHT22;65797;47.352;8.164;2023-08-08T15:16:00;24.70;59.90
76838;DHT22;65797;47.352;8.164;2023-08-08T15:18:26;24.30;55.90
76838;DHT22;65797;47.352;8.164;2023-08-08T15:20:52;23.70;51.60
76838;DHT22;65797;47.352;8.164;2023-08-08T15:23:17;23.70;49.90
76838;DHT22;65797;47.352;8.164;2023-08-08T15:25:43;24.20;52.40
76838;DHT22;65797;47.352;8.164;2023-08-08T15:28:09;23.90;49.80
76838;DHT22;65797;47.352;8.164;2023-08-08T15:30:38;23.90;51.10
76838;DHT22;65797;47.352;8.164;2023-08-08T15:33:04;24.00;51.20
76838;DHT22;65797;47.352;8.164;2023-08-08T15:35:29;23.50;47.10
76838;DHT22;65797;47.352;8.164;2023-08-08T15:37:55;23.50;46.80
76838;DHT22;65797;47.352;8.164;2023-08-08T15:40:23;23.20;44.30
76838;DHT22;65797;47.352;8.164;2023-08-08T15:42:49;23.30;45.80
76838;DHT22;65797;47.352;8.164;2023-08-08T16:13:43;23.60;44.90
76838;DHT22;65797;47.352;8.164;2023-08-08T16:16:09;23.60;45.30
76838;DHT22;65797;47.352;8.164;2023-08-08T16:18:35;23.60;43.00
76838;DHT22;65797;47.352;8.164;2023-08-08T16:21:00;23.20;40.80
76838;DHT22;65797;47.352;8.164;2023-08-08T16:23:26;23.20;40.90
76838;DHT22;65797;47.352;8.164;2023-08-08T16:25:52;23.40;41.80
76838;DHT22;65797;47.352;8.164;2023-08-08T16:28:18;23.40;42.30
76838;DHT22;65797;47.352;8.164;2023-08-08T16:30:46;23.00;38.40
76838;DHT22;65797;47.352;8.164;2023-08-08T16:33:12;22.90;37.10
76838;DHT22;65797;47.352;8.164;2023-08-08T16:35:42;23.10;40.50
76838;DHT22;65797;47.352;8.164;2023-08-08T16:40:41;22.70;38.30
76838;DHT22;65797;47.352;8.164;2023-08-08T16:43:08;22.70;36.20
76838;DHT22;65797;47.352;8.164;2023-08-08T16:45:33;22.90;37.70
76838;DHT22;65797;47.352;8.164;2023-08-08T16:48:01;22.90;37.70
76838;DHT22;65797;47.352;8.164;2023-08-08T18:21:04;20.60;28.40
76838;DHT22;65797;47.352;8.164;2023-08-08T18:23:31;20.60;29.70
76838;DHT22;65797;47.352;8.164;2023-08-08T23:19:10;16.00;1.00
76838;DHT22;65797;47.352;8.164;2023-08-08T23:45:27;16.10;1.00
76838;DHT22;65797;47.352;8.164;2023-08-08T23:47:53;16.20;1.00
76838;DHT22;65797;47.352;8.164;2023-08-08T23:50:19;16.20;1.00
76838;DHT22;65797;47.352;8.164;2023-08-08T23:52:44;16.10;1.00
76838;DHT22;65797;47.352;8.164;2023-08-08T23:55:10;16.10;1.00
